sensor_id;sensor_type;location;lat;lon;timestamp;P1;durP1;ratioP1;P2;durP2;ratioP2
83247;SDS011;73465;51.038;7.052;2024-01-15T00:00:10;4.18;;;1.85;;
83247;SDS011;73465;51.038;7.052;2024-01-15T00:02:36;3.83;;;2.35;;
83247;SDS011;73465;51.038;7.052;2024-01-15T00:05:01;3.70;;;2.05;;
83247;SDS011;73465;51.038;7.052;2024-01-15T00:07:27;3.40;;;1.88;;
83247;SDS011;73465;51.038;7.052;2024-01-15T00:09:52;5.43;;;2.13;;
83247;SDS011;73465;51.038;7.052;2024-01-15T00:12:17;2.85;;;1.63;;
83247;SDS011;73465;51.038;7.052;2024-01-15T00:14:42;4.38;;;1.70;;
83247;SDS011;73465;51.038;7.052;2024-01-15T00:17:08;3.67;;;2.10;;
83247;SDS011;73465;51.038;7.052;2024-01-15T00:19:33;3.10;;;2.03;;
83247;SDS011;73465;51.038;7.052;2024-01-15T00:21:58;2.95;;;2.00;;
83247;SDS011;73465;51.038;7.052;2024-01-15T00:24:24;3.80;;;2.13;;
83247;SDS011;73465;51.038;7.052;2024-01-15T00:26:50;4.38;;;1.55;;
83247;SDS011;73465;51.038;7.052;2024-01-15T00:29:15;4.18;;;2.03;;
83247;SDS011;73465;51.038;7.052;2024-01-15T00:31:40;4.03;;;2.10;;
83247;SDS011;73465;51.038;7.052;2024-01-15T00:34:06;3.75;;;2.20;;
83247;SDS011;73465;51.038;7.052;2024-01-15T00:36:33;2.72;;;1.80;;
83247;SDS011;73465;51.038;7.052;2024-01-15T00:38:58;3.22;;;2.00;;
83247;SDS011;73465;51.038;7.052;2024-01-15T00:41:24;3.83;;;2.10;;
83247;SDS011;73465;51.038;7.052;2024-01-15T00:43:49;4.88;;;2.20;;
83247;SDS011;73465;51.038;7.052;2024-01-15T00:46:15;3.45;;;1.83;;
83247;SDS011;73465;51.038;7.052;2024-01-15T00:48:40;4.65;;;2.10;;
83247;SDS011;73465;51.038;7.052;2024-01-15T00:51:06;2.83;;;1.88;;
83247;SDS011;73465;51.038;7.052;2024-01-15T00:53:31;3.50;;;1.90;;
83247;SDS011;73465;51.038;7.052;2024-01-15T00:55:57;3.58;;;2.05;;
83247;SDS011;73465;51.038;7.052;2024-01-15T00:58:22;3.67;;;1.90;;
83247;SDS011;73465;51.038;7.052;2024-01-15T01:00:47;3.78;;;2.17;;
83247;SDS011;73465;51.038;7.052;2024-01-15T01:03:13;4.47;;;2.20;;
83247;SDS011;73465;51.038;7.052;2024-01-15T01:05:38;4.43;;;2.00;;
83247;SDS011;73465;51.038;7.052;2024-01-15T01:08:03;3.45;;;2.10;;
83247;SDS011;73465;51.038;7.052;2024-01-15T01:10:29;4.68;;;1.77;;
83247;SDS011;73465;51.038;7.052;2024-01-15T01:12:55;3.10;;;1.88;;
83247;SDS011;73465;51.038;7.052;2024-01-15T01:15:20;3.97;;;2.53;;
83247;SDS011;73465;51.038;7.052;2024-01-15T01:17:46;5.25;;;1.90;;
83247;SDS011;73465;51.038;7.052;2024-01-15T01:20:11;3.65;;;2.42;;
83247;SDS011;73465;51.038;7.052;2024-01-15T01:22:37;4.75;;;2.08;;
83247;SDS011;73465;51.038;7.052;2024-01-15T01:25:02;3.50;;;1.92;;
83247;SDS011;73465;51.038;7.052;2024-01-15T01:27:28;5.22;;;1.90;;
83247;SDS011;73465;51.038;7.052;2024-01-15T01:29:53;3.05;;;1.88;;
83247;SDS011;73465;51.038;7.052;2024-01-15T01:32:19;3.55;;;2.25;;
83247;SDS011;73465;51.038;7.052;2024-01-15T01:34:44;3.72;;;2.10;;
83247;SDS011;73465;51.038;7.052;2024-01-15T01:37:10;2.90;;;1.90;;
83247;SDS011;73465;51.038;7.052;2024-01-15T01:39:39;4.38;;;2.40;;
83247;SDS011;73465;51.038;7.052;2024-01-15T01:42:05;3.33;;;1.95;;
83247;SDS011;73465;51.038;7.052;2024-01-15T01:44:31;5.03;;;2.20;;
83247;SDS011;73465;51.038;7.052;2024-01-15T01:46:57;3.50;;;2.20;;
83247;SDS011;73465;51.038;7.052;2024-01-15T01:49:24;6.07;;;2.40;;
83247;SDS011;73465;51.038;7.052;2024-01-15T01:51:50;3.42;;;2.20;;
83247;SDS011;73465;51.038;7.052;2024-01-15T01:54:16;3.60;;;2.03;;
83247;SDS011;73465;51.038;7.052;2024-01-15T01:56:42;3.55;;;1.90;;
83247;SDS011;73465;51.038;7.052;2024-01-15T01:59:08;3.90;;;2.15;;
83247;SDS011;73465;51.038;7.052;2024-01-15T02:01:36;3.45;;;2.10;;
83247;SDS011;73465;51.038;7.052;2024-01-15T02:04:01;3.50;;;2.10;;
83247;SDS011;73465;51.038;7.052;2024-01-15T02:06:28;3.72;;;2.00;;
83247;SDS011;73465;51.038;7.052;2024-01-15T02:08:53;3.63;;;2.20;;
83247;SDS011;73465;51.038;7.052;2024-01-15T02:11:19;3.55;;;1.85;;
83247;SDS011;73465;51.038;7.052;2024-01-15T02:13:44;4.50;;;2.28;;
83247;SDS011;73465;51.038;7.052;2024-01-15T02:16:09;2.90;;;2.17;;
83247;SDS011;73465;51.038;7.052;2024-01-15T02:18:41;4.00;;;2.10;;
83247;SDS011;73465;51.038;7.052;2024-01-15T02:21:07;3.80;;;2.00;;
83247;SDS011;73465;51.038;7.052;2024-01-15T02:23:33;3.30;;;1.90;;
83247;SDS011;73465;51.038;7.052;2024-01-15T02:25:58;3.90;;;2.20;;
83247;SDS011;73465;51.038;7.052;2024-01-15T02:28:24;4.22;;;2.10;;
83247;SDS011;73465;51.038;7.052;2024-01-15T02:30:49;4.22;;;2.42;;
83247;SDS011;73465;51.038;7.052;2024-01-15T02:33:14;3.22;;;1.90;;
83247;SDS011;73465;51.038;7.052;2024-01-15T02:35:40;3.72;;;1.90;;
83247;SDS011;73465;51.038;7.052;2024-01-15T02:38:05;2.50;;;2.00;;
83247;SDS011;73465;51.038;7.052;2024-01-15T02:40:31;6.13;;;2.42;;
83247;SDS011;73465;51.038;7.052;2024-01-15T02:42:57;4.00;;;2.40;;
83247;SDS011;73465;51.038;7.052;2024-01-15T02:45:22;2.95;;;1.83;;
83247;SDS011;73465;51.038;7.052;2024-01-15T02:47:48;3.63;;;2.20;;
83247;SDS011;73465;51.038;7.052;2024-01-15T02:50:14;3.28;;;1.98;;
83247;SDS011;73465;51.038;7.052;2024-01-15T02:52:39;3.22;;;2.30;;
83247;SDS011;73465;51.038;7.052;2024-01-15T02:55:04;2.70;;;2.10;;
83247;SDS011;73465;51.038;7.052;2024-01-15T02:57:30;4.85;;;2.00;;
83247;SDS011;73465;51.038;7.052;2024-01-15T02:59:55;4.75;;;2.30;;
83247;SDS011;73465;51.038;7.052;2024-01-15T03:02:21;2.78;;;2.20;;
83247;SDS011;73465;51.038;7.052;2024-01-15T03:04:46;3.75;;;2.25;;
83247;SDS011;73465;51.038;7.052;2024-01-15T03:07:11;3.88;;;2.05;;
83247;SDS011;73465;51.038;7.052;2024-01-15T03:09:37;4.18;;;2.50;;
83247;SDS011;73465;51.038;7.052;2024-01-15T03:12:03;4.30;;;2.35;;
83247;SDS011;73465;51.038;7.052;2024-01-15T03:14:29;2.95;;;2.20;;
83247;SDS011;73465;51.038;7.052;2024-01-15T03:16:54;4.35;;;2.47;;
83247;SDS011;73465;51.038;7.052;2024-01-15T03:19:19;4.20;;;2.30;;
83247;SDS011;73465;51.038;7.052;2024-01-15T03:21:45;3.33;;;2.00;;
83247;SDS011;73465;51.038;7.052;2024-01-15T03:24:10;5.80;;;1.90;;
83247;SDS011;73465;51.038;7.052;2024-01-15T03:26:35;3.47;;;2.10;;
83247;SDS011;73465;51.038;7.052;2024-01-15T03:29:01;3.85;;;2.08;;
83247;SDS011;73465;51.038;7.052;2024-01-15T03:31:26;3.72;;;2.13;;
83247;SDS011;73465;51.038;7.052;2024-01-15T03:33:51;2.40;;;1.88;;
83247;SDS011;73465;51.038;7.052;2024-01-15T03:36:17;4.22;;;2.30;;
83247;SDS011;73465;51.038;7.052;2024-01-15T03:38:42;3.00;;;2.05;;
83247;SDS011;73465;51.038;7.052;2024-01-15T03:41:08;4.00;;;2.40;;
83247;SDS011;73465;51.038;7.052;2024-01-15T03:43:33;4.97;;;2.20;;
83247;SDS011;73465;51.038;7.052;2024-01-15T03:45:58;3.47;;;1.80;;
83247;SDS011;73465;51.038;7.052;2024-01-15T03:48:24;5.85;;;2.33;;
83247;SDS011;73465;51.038;7.052;2024-01-15T03:50:49;3.83;;;2.05;;
83247;SDS011;73465;51.038;7.052;2024-01-15T03:53:14;7.13;;;2.08;;
83247;SDS011;73465;51.038;7.052;2024-01-15T03:55:40;3.28;;;2.10;;
83247;SDS011;73465;51.038;7.052;2024-01-15T03:58:05;4.88;;;2.10;;
83247;SDS011;73465;51.038;7.052;2024-01-15T04:00:31;7.70;;;2.10;;
83247;SDS011;73465;51.038;7.052;2024-01-15T04:02:56;7.70;;;2.42;;
83247;SDS011;73465;51.038;7.052;2024-01-15T04:05:21;9.43;;;2.38;;
83247;SDS011;73465;51.038;7.052;2024-01-15T04:07:46;6.00;;;2.55;;
83247;SDS011;73465;51.038;7.052;2024-01-15T04:10:12;7.15;;;2.60;;
83247;SDS011;73465;51.038;7.052;2024-01-15T04:12:37;8.27;;;2.38;;
83247;SDS011;73465;51.038;7.052;2024-01-15T04:15:03;7.20;;;2.38;;
83247;SDS011;73465;51.038;7.052;2024-01-15T04:17:28;8.18;;;2.28;;
83247;SDS011;73465;51.038;7.052;2024-01-15T04:19:53;8.50;;;2.30;;
83247;SDS011;73465;51.038;7.052;2024-01-15T04:22:19;7.95;;;1.92;;
83247;SDS011;73465;51.038;7.052;2024-01-15T04:24:44;6.32;;;2.40;;
83247;SDS011;73465;51.038;7.052;2024-01-15T04:27:10;8.05;;;2.53;;
83247;SDS011;73465;51.038;7.052;2024-01-15T04:29:37;5.68;;;2.63;;
83247;SDS011;73465;51.038;7.052;2024-01-15T04:32:04;4.22;;;2.17;;
83247;SDS011;73465;51.038;7.052;2024-01-15T04:34:29;5.53;;;2.30;;
83247;SDS011;73465;51.038;7.052;2024-01-15T04:36:54;8.70;;;2.13;;
83247;SDS011;73465;51.038;7.052;2024-01-15T04:39:20;6.05;;;2.20;;
83247;SDS011;73465;51.038;7.052;2024-01-15T04:41:45;9.32;;;2.00;;
83247;SDS011;73465;51.038;7.052;2024-01-15T04:44:10;6.18;;;2.10;;
83247;SDS011;73465;51.038;7.052;2024-01-15T04:46:35;6.13;;;2.05;;
83247;SDS011;73465;51.038;7.052;2024-01-15T04:49:01;9.88;;;2.38;;
83247;SDS011;73465;51.038;7.052;2024-01-15T04:51:26;4.43;;;1.83;;
83247;SDS011;73465;51.038;7.052;2024-01-15T04:53:52;6.40;;;2.28;;
83247;SDS011;73465;51.038;7.052;2024-01-15T04:56:17;3.88;;;2.05;;
83247;SDS011;73465;51.038;7.052;2024-01-15T04:58:43;5.03;;;1.75;;
83247;SDS011;73465;51.038;7.052;2024-01-15T05:01:08;6.68;;;2.92;;
83247;SDS011;73465;51.038;7.052;2024-01-15T05:03:35;2.33;;;1.70;;
83247;SDS011;73465;51.038;7.052;2024-01-15T05:06:00;4.88;;;1.88;;
83247;SDS011;73465;51.038;7.052;2024-01-15T05:08:25;5.85;;;2.33;;
83247;SDS011;73465;51.038;7.052;2024-01-15T05:10:51;5.97;;;1.88;;
83247;SDS011;73465;51.038;7.052;2024-01-15T05:13:16;7.85;;;1.95;;
83247;SDS011;73465;51.038;7.052;2024-01-15T05:15:41;3.42;;;2.05;;
83247;SDS011;73465;51.038;7.052;2024-01-15T05:18:07;5.20;;;2.20;;
83247;SDS011;73465;51.038;7.052;2024-01-15T05:20:32;4.93;;;2.30;;
83247;SDS011;73465;51.038;7.052;2024-01-15T05:22:57;3.78;;;2.40;;
83247;SDS011;73465;51.038;7.052;2024-01-15T05:25:23;6.05;;;2.10;;
83247;SDS011;73465;51.038;7.052;2024-01-15T05:27:48;6.75;;;2.10;;
83247;SDS011;73465;51.038;7.052;2024-01-15T05:30:13;7.53;;;2.00;;
83247;SDS011;73465;51.038;7.052;2024-01-15T05:32:39;5.28;;;2.00;;
83247;SDS011;73465;51.038;7.052;2024-01-15T05:35:04;2.80;;;1.85;;
83247;SDS011;73465;51.038;7.052;2024-01-15T05:37:30;5.93;;;2.25;;
83247;SDS011;73465;51.038;7.052;2024-01-15T05:39:55;7.93;;;2.33;;
83247;SDS011;73465;51.038;7.052;2024-01-15T05:42:21;5.50;;;2.10;;
83247;SDS011;73465;51.038;7.052;2024-01-15T05:44:46;5.55;;;1.95;;
83247;SDS011;73465;51.038;7.052;2024-01-15T05:47:11;4.45;;;2.00;;
83247;SDS011;73465;51.038;7.052;2024-01-15T05:49:37;4.72;;;2.10;;
83247;SDS011;73465;51.038;7.052;2024-01-15T05:52:02;7.82;;;1.80;;
83247;SDS011;73465;51.038;7.052;2024-01-15T05:54:28;3.47;;;1.85;;
83247;SDS011;73465;51.038;7.052;2024-01-15T05:56:53;4.78;;;2.20;;
83247;SDS011;73465;51.038;7.052;2024-01-15T05:59:19;4.25;;;2.38;;
83247;SDS011;73465;51.038;7.052;2024-01-15T06:01:44;4.10;;;2.00;;
83247;SDS011;73465;51.038;7.052;2024-01-15T06:04:09;3.25;;;2.20;;
83247;SDS011;73465;51.038;7.052;2024-01-15T06:06:35;5.72;;;1.83;;
83247;SDS011;73465;51.038;7.052;2024-01-15T06:09:00;4.85;;;2.00;;
83247;SDS011;73465;51.038;7.052;2024-01-15T06:11:30;5.97;;;2.28;;
83247;SDS011;73465;51.038;7.052;2024-01-15T06:13:59;6.95;;;1.90;;
83247;SDS011;73465;51.038;7.052;2024-01-15T06:16:25;3.65;;;2.00;;
83247;SDS011;73465;51.038;7.052;2024-01-15T06:18:51;3.85;;;2.10;;
83247;SDS011;73465;51.038;7.052;2024-01-15T06:21:16;4.88;;;2.00;;
83247;SDS011;73465;51.038;7.052;2024-01-15T06:23:42;4.93;;;2.20;;
83247;SDS011;73465;51.038;7.052;2024-01-15T06:26:07;9.40;;;2.30;;
83247;SDS011;73465;51.038;7.052;2024-01-15T06:28:32;7.35;;;1.85;;
83247;SDS011;73465;51.038;7.052;2024-01-15T06:30:58;6.82;;;1.80;;
83247;SDS011;73465;51.038;7.052;2024-01-15T06:33:23;3.67;;;1.95;;
83247;SDS011;73465;51.038;7.052;2024-01-15T06:35:49;4.60;;;2.42;;
83247;SDS011;73465;51.038;7.052;2024-01-15T06:38:15;4.78;;;2.08;;
83247;SDS011;73465;51.038;7.052;2024-01-15T06:40:40;5.15;;;1.90;;
83247;SDS011;73465;51.038;7.052;2024-01-15T06:43:10;4.85;;;2.20;;
83247;SDS011;73465;51.038;7.052;2024-01-15T06:45:39;3.83;;;1.90;;
83247;SDS011;73465;51.038;7.052;2024-01-15T06:48:04;5.35;;;1.73;;
83247;SDS011;73465;51.038;7.052;2024-01-15T06:50:30;2.83;;;1.80;;
83247;SDS011;73465;51.038;7.052;2024-01-15T06:52:55;5.40;;;1.80;;
83247;SDS011;73465;51.038;7.052;2024-01-15T06:55:21;4.57;;;2.00;;
83247;SDS011;73465;51.038;7.052;2024-01-15T06:57:46;3.72;;;2.00;;
83247;SDS011;73465;51.038;7.052;2024-01-15T07:00:11;6.95;;;2.03;;
83247;SDS011;73465;51.038;7.052;2024-01-15T07:02:37;3.22;;;1.70;;
83247;SDS011;73465;51.038;7.052;2024-01-15T07:05:02;6.60;;;1.73;;
83247;SDS011;73465;51.038;7.052;2024-01-15T07:07:30;3.88;;;2.05;;
83247;SDS011;73465;51.038;7.052;2024-01-15T07:09:55;4.00;;;1.88;;
83247;SDS011;73465;51.038;7.052;2024-01-15T07:12:21;2.72;;;1.60;;
83247;SDS011;73465;51.038;7.052;2024-01-15T07:14:46;2.55;;;1.77;;
83247;SDS011;73465;51.038;7.052;2024-01-15T07:17:11;4.32;;;1.90;;
83247;SDS011;73465;51.038;7.052;2024-01-15T07:19:36;4.45;;;1.63;;
83247;SDS011;73465;51.038;7.052;2024-01-15T07:22:02;4.10;;;1.73;;
83247;SDS011;73465;51.038;7.052;2024-01-15T07:24:27;4.93;;;2.03;;
83247;SDS011;73465;51.038;7.052;2024-01-15T07:26:53;5.28;;;1.83;;
83247;SDS011;73465;51.038;7.052;2024-01-15T07:29:18;3.38;;;1.50;;
83247;SDS011;73465;51.038;7.052;2024-01-15T07:31:50;3.22;;;1.77;;
83247;SDS011;73465;51.038;7.052;2024-01-15T07:34:16;4.50;;;2.00;;
83247;SDS011;73465;51.038;7.052;2024-01-15T07:36:43;2.63;;;1.85;;
83247;SDS011;73465;51.038;7.052;2024-01-15T07:39:10;8.15;;;3.97;;
83247;SDS011;73465;51.038;7.052;2024-01-15T07:41:35;8.27;;;3.78;;
83247;SDS011;73465;51.038;7.052;2024-01-15T07:44:02;7.50;;;2.70;;
83247;SDS011;73465;51.038;7.052;2024-01-15T07:46:27;4.95;;;2.90;;
83247;SDS011;73465;51.038;7.052;2024-01-15T07:48:53;5.10;;;2.30;;
83247;SDS011;73465;51.038;7.052;2024-01-15T07:51:21;5.45;;;2.03;;
83247;SDS011;73465;51.038;7.052;2024-01-15T07:53:47;3.95;;;2.30;;
83247;SDS011;73465;51.038;7.052;2024-01-15T07:56:13;3.50;;;2.10;;
83247;SDS011;73465;51.038;7.052;2024-01-15T07:58:38;3.67;;;1.90;;
83247;SDS011;73465;51.038;7.052;2024-01-15T08:01:08;5.43;;;2.05;;
83247;SDS011;73465;51.038;7.052;2024-01-15T08:03:34;3.97;;;2.38;;
83247;SDS011;73465;51.038;7.052;2024-01-15T08:05:59;4.38;;;2.08;;
83247;SDS011;73465;51.038;7.052;2024-01-15T08:08:25;3.63;;;1.67;;
83247;SDS011;73465;51.038;7.052;2024-01-15T08:10:54;6.13;;;2.10;;
83247;SDS011;73465;51.038;7.052;2024-01-15T08:13:19;5.63;;;2.05;;
83247;SDS011;73465;51.038;7.052;2024-01-15T08:15:46;3.50;;;1.60;;
83247;SDS011;73465;51.038;7.052;2024-01-15T08:18:12;3.75;;;2.22;;
83247;SDS011;73465;51.038;7.052;2024-01-15T08:20:37;2.45;;;1.55;;
83247;SDS011;73465;51.038;7.052;2024-01-15T08:23:03;6.80;;;1.88;;
83247;SDS011;73465;51.038;7.052;2024-01-15T08:25:29;5.40;;;2.20;;
83247;SDS011;73465;51.038;7.052;2024-01-15T08:27:55;3.35;;;1.83;;
83247;SDS011;73465;51.038;7.052;2024-01-15T08:30:24;3.53;;;1.60;;
83247;SDS011;73465;51.038;7.052;2024-01-15T08:32:52;4.80;;;1.65;;
83247;SDS011;73465;51.038;7.052;2024-01-15T08:35:18;3.55;;;1.92;;
83247;SDS011;73465;51.038;7.052;2024-01-15T08:37:47;3.20;;;1.38;;
83247;SDS011;73465;51.038;7.052;2024-01-15T08:40:14;4.22;;;1.75;;
83247;SDS011;73465;51.038;7.052;2024-01-15T08:42:39;5.38;;;1.55;;
83247;SDS011;73465;51.038;7.052;2024-01-15T08:45:04;6.70;;;1.80;;
83247;SDS011;73465;51.038;7.052;2024-01-15T08:47:30;3.67;;;1.75;;
83247;SDS011;73465;51.038;7.052;2024-01-15T08:49:55;5.90;;;1.73;;
83247;SDS011;73465;51.038;7.052;2024-01-15T08:52:20;8.98;;;2.30;;
83247;SDS011;73465;51.038;7.052;2024-01-15T08:54:46;4.65;;;2.25;;
83247;SDS011;73465;51.038;7.052;2024-01-15T08:57:14;5.22;;;2.28;;
83247;SDS011;73465;51.038;7.052;2024-01-15T08:59:39;8.35;;;2.85;;
83247;SDS011;73465;51.038;7.052;2024-01-15T09:02:06;7.22;;;2.90;;
83247;SDS011;73465;51.038;7.052;2024-01-15T09:04:32;10.32;;;3.22;;
83247;SDS011;73465;51.038;7.052;2024-01-15T09:06:58;6.88;;;2.85;;
83247;SDS011;73465;51.038;7.052;2024-01-15T09:09:23;10.07;;;3.03;;
83247;SDS011;73465;51.038;7.052;2024-01-15T09:11:49;5.75;;;2.15;;
83247;SDS011;73465;51.038;7.052;2024-01-15T09:14:15;4.53;;;2.25;;
83247;SDS011;73465;51.038;7.052;2024-01-15T09:16:41;5.97;;;2.47;;
83247;SDS011;73465;51.038;7.052;2024-01-15T09:19:06;5.70;;;2.65;;
83247;SDS011;73465;51.038;7.052;2024-01-15T09:21:31;6.78;;;2.45;;
83247;SDS011;73465;51.038;7.052;2024-01-15T09:23:59;6.93;;;2.80;;
83247;SDS011;73465;51.038;7.052;2024-01-15T09:26:25;4.68;;;2.45;;
83247;SDS011;73465;51.038;7.052;2024-01-15T09:28:51;5.70;;;2.28;;
83247;SDS011;73465;51.038;7.052;2024-01-15T09:31:17;8.32;;;2.13;;
83247;SDS011;73465;51.038;7.052;2024-01-15T09:33:43;5.68;;;2.15;;
83247;SDS011;73465;51.038;7.052;2024-01-15T09:36:09;4.63;;;1.90;;
83247;SDS011;73465;51.038;7.052;2024-01-15T09:38:34;5.28;;;2.05;;
83247;SDS011;73465;51.038;7.052;2024-01-15T09:41:00;4.40;;;2.25;;
83247;SDS011;73465;51.038;7.052;2024-01-15T09:43:25;4.35;;;2.13;;
83247;SDS011;73465;51.038;7.052;2024-01-15T09:45:51;4.63;;;2.05;;
83247;SDS011;73465;51.038;7.052;2024-01-15T09:48:18;6.80;;;2.08;;
83247;SDS011;73465;51.038;7.052;2024-01-15T09:50:43;6.22;;;2.17;;
83247;SDS011;73465;51.038;7.052;2024-01-15T09:53:08;5.95;;;2.20;;
83247;SDS011;73465;51.038;7.052;2024-01-15T09:55:35;4.25;;;2.30;;
83247;SDS011;73465;51.038;7.052;2024-01-15T09:58:02;5.93;;;2.25;;
83247;SDS011;73465;51.038;7.052;2024-01-15T10:00:28;5.07;;;1.80;;
83247;SDS011;73465;51.038;7.052;2024-01-15T10:02:54;4.57;;;2.20;;
83247;SDS011;73465;51.038;7.052;2024-01-15T10:05:21;3.88;;;2.10;;
83247;SDS011;73465;51.038;7.052;2024-01-15T10:07:46;3.50;;;1.63;;
83247;SDS011;73465;51.038;7.052;2024-01-15T10:10:13;4.18;;;1.67;;
83247;SDS011;73465;51.038;7.052;2024-01-15T10:12:39;4.03;;;1.70;;
83247;SDS011;73465;51.038;7.052;2024-01-15T10:15:04;4.72;;;1.77;;
83247;SDS011;73465;51.038;7.052;2024-01-15T10:17:30;2.95;;;1.50;;
83247;SDS011;73465;51.038;7.052;2024-01-15T10:19:56;5.95;;;2.00;;
83247;SDS011;73465;51.038;7.052;2024-01-15T10:22:22;4.40;;;1.80;;
83247;SDS011;73465;51.038;7.052;2024-01-15T10:24:48;3.75;;;1.10;;
83247;SDS011;73465;51.038;7.052;2024-01-15T10:27:14;2.45;;;1.77;;
83247;SDS011;73465;51.038;7.052;2024-01-15T10:29:40;3.58;;;1.80;;
83247;SDS011;73465;51.038;7.052;2024-01-15T10:32:07;2.45;;;1.65;;
83247;SDS011;73465;51.038;7.052;2024-01-15T10:34:39;6.25;;;1.80;;
83247;SDS011;73465;51.038;7.052;2024-01-15T10:37:05;3.92;;;1.95;;
83247;SDS011;73465;51.038;7.052;2024-01-15T10:39:32;2.13;;;1.35;;
83247;SDS011;73465;51.038;7.052;2024-01-15T10:54:53;5.13;;;2.22;;
83247;SDS011;73465;51.038;7.052;2024-01-15T10:57:18;3.60;;;2.38;;
83247;SDS011;73465;51.038;7.052;2024-01-15T10:59:47;8.63;;;3.10;;
83247;SDS011;73465;51.038;7.052;2024-01-15T11:02:13;6.68;;;3.00;;
83247;SDS011;73465;51.038;7.052;2024-01-15T11:04:40;5.88;;;3.00;;
83247;SDS011;73465;51.038;7.052;2024-01-15T11:07:05;5.93;;;3.70;;
83247;SDS011;73465;51.038;7.052;2024-01-15T11:09:31;4.57;;;2.75;;
83247;SDS011;73465;51.038;7.052;2024-01-15T11:12:16;8.00;;;3.35;;
83247;SDS011;73465;51.038;7.052;2024-01-15T11:14:46;7.70;;;4.15;;
83247;SDS011;73465;51.038;7.052;2024-01-15T11:17:12;5.60;;;3.40;;
83247;SDS011;73465;51.038;7.052;2024-01-15T11:19:42;4.30;;;2.53;;
83247;SDS011;73465;51.038;7.052;2024-01-15T11:22:10;6.22;;;2.83;;
83247;SDS011;73465;51.038;7.052;2024-01-15T11:25:02;9.43;;;3.67;;
83247;SDS011;73465;51.038;7.052;2024-01-15T11:27:42;5.63;;;3.05;;
83247;SDS011;73465;51.038;7.052;2024-01-15T11:30:18;5.68;;;2.38;;
83247;SDS011;73465;51.038;7.052;2024-01-15T11:32:45;3.33;;;2.50;;
83247;SDS011;73465;51.038;7.052;2024-01-15T11:35:12;6.20;;;2.40;;
83247;SDS011;73465;51.038;7.052;2024-01-15T11:40:36;5.47;;;2.45;;
83247;SDS011;73465;51.038;7.052;2024-01-15T11:43:03;9.07;;;3.30;;
83247;SDS011;73465;51.038;7.052;2024-01-15T11:45:31;4.75;;;2.08;;
83247;SDS011;73465;51.038;7.052;2024-01-15T11:50:21;4.47;;;1.70;;
83247;SDS011;73465;51.038;7.052;2024-01-15T11:52:50;1.70;;;1.30;;
83247;SDS011;73465;51.038;7.052;2024-01-15T11:55:28;5.85;;;2.05;;
83247;SDS011;73465;51.038;7.052;2024-01-15T11:57:58;4.90;;;2.05;;
83247;SDS011;73465;51.038;7.052;2024-01-15T12:00:26;3.83;;;1.98;;
83247;SDS011;73465;51.038;7.052;2024-01-15T12:02:51;3.42;;;2.22;;
83247;SDS011;73465;51.038;7.052;2024-01-15T12:05:17;4.32;;;2.15;;
83247;SDS011;73465;51.038;7.052;2024-01-15T12:07:47;4.50;;;2.22;;
83247;SDS011;73465;51.038;7.052;2024-01-15T12:10:17;3.47;;;2.30;;
83247;SDS011;73465;51.038;7.052;2024-01-15T12:15:23;3.45;;;2.40;;
83247;SDS011;73465;51.038;7.052;2024-01-15T12:17:49;4.85;;;2.80;;
83247;SDS011;73465;51.038;7.052;2024-01-15T12:20:15;5.57;;;2.65;;
83247;SDS011;73465;51.038;7.052;2024-01-15T12:22:43;3.55;;;2.22;;
83247;SDS011;73465;51.038;7.052;2024-01-15T12:25:09;8.00;;;3.10;;
83247;SDS011;73465;51.038;7.052;2024-01-15T12:27:34;6.95;;;2.80;;
83247;SDS011;73465;51.038;7.052;2024-01-15T12:30:00;5.90;;;3.67;;
83247;SDS011;73465;51.038;7.052;2024-01-15T12:32:25;7.57;;;3.53;;
83247;SDS011;73465;51.038;7.052;2024-01-15T12:34:51;7.93;;;4.05;;
83247;SDS011;73465;51.038;7.052;2024-01-15T12:37:19;6.07;;;4.32;;
83247;SDS011;73465;51.038;7.052;2024-01-15T12:39:45;8.32;;;4.55;;
83247;SDS011;73465;51.038;7.052;2024-01-15T12:42:11;11.95;;;5.88;;
83247;SDS011;73465;51.038;7.052;2024-01-15T12:44:37;9.52;;;5.15;;
83247;SDS011;73465;51.038;7.052;2024-01-15T12:47:03;13.60;;;5.88;;
83247;SDS011;73465;51.038;7.052;2024-01-15T12:49:30;10.77;;;5.10;;
83247;SDS011;73465;51.038;7.052;2024-01-15T12:51:59;7.15;;;4.47;;
83247;SDS011;73465;51.038;7.052;2024-01-15T12:54:25;9.27;;;5.00;;
83247;SDS011;73465;51.038;7.052;2024-01-15T12:56:51;12.40;;;4.65;;
83247;SDS011;73465;51.038;7.052;2024-01-15T12:59:17;13.63;;;4.85;;
83247;SDS011;73465;51.038;7.052;2024-01-15T13:01:44;8.48;;;4.63;;
83247;SDS011;73465;51.038;7.052;2024-01-15T13:04:10;9.68;;;4.63;;
83247;SDS011;73465;51.038;7.052;2024-01-15T13:06:35;10.30;;;4.45;;
83247;SDS011;73465;51.038;7.052;2024-01-15T13:09:02;13.07;;;4.32;;
83247;SDS011;73465;51.038;7.052;2024-01-15T13:11:30;13.02;;;3.90;;
83247;SDS011;73465;51.038;7.052;2024-01-15T13:13:55;9.90;;;3.28;;
83247;SDS011;73465;51.038;7.052;2024-01-15T13:16:22;7.75;;;3.08;;
83247;SDS011;73465;51.038;7.052;2024-01-15T13:18:47;7.47;;;3.10;;
83247;SDS011;73465;51.038;7.052;2024-01-15T13:21:14;8.70;;;2.85;;
83247;SDS011;73465;51.038;7.052;2024-01-15T13:23:40;14.02;;;2.83;;
83247;SDS011;73465;51.038;7.052;2024-01-15T13:26:05;6.03;;;2.65;;
83247;SDS011;73465;51.038;7.052;2024-01-15T13:28:32;7.35;;;2.67;;
83247;SDS011;73465;51.038;7.052;2024-01-15T13:30:57;10.63;;;2.83;;
83247;SDS011;73465;51.038;7.052;2024-01-15T13:33:23;5.65;;;2.72;;
83247;SDS011;73465;51.038;7.052;2024-01-15T13:35:48;8.38;;;2.80;;
83247;SDS011;73465;51.038;7.052;2024-01-15T13:38:16;9.77;;;2.78;;
83247;SDS011;73465;51.038;7.052;2024-01-15T13:40:42;7.05;;;3.00;;
83247;SDS011;73465;51.038;7.052;2024-01-15T13:43:10;4.22;;;2.47;;
83247;SDS011;73465;51.038;7.052;2024-01-15T13:45:36;7.13;;;2.75;;
83247;SDS011;73465;51.038;7.052;2024-01-15T13:48:02;12.13;;;2.47;;
83247;SDS011;73465;51.038;7.052;2024-01-15T13:50:30;7.22;;;3.33;;
83247;SDS011;73465;51.038;7.052;2024-01-15T13:52:56;4.97;;;2.65;;
83247;SDS011;73465;51.038;7.052;2024-01-15T13:55:21;6.35;;;2.58;;
83247;SDS011;73465;51.038;7.052;2024-01-15T13:57:47;3.38;;;2.08;;
83247;SDS011;73465;51.038;7.052;2024-01-15T14:00:12;5.80;;;2.70;;
83247;SDS011;73465;51.038;7.052;2024-01-15T14:02:44;3.65;;;1.80;;
83247;SDS011;73465;51.038;7.052;2024-01-15T14:05:10;5.85;;;1.85;;
83247;SDS011;73465;51.038;7.052;2024-01-15T14:07:37;4.90;;;2.40;;
83247;SDS011;73465;51.038;7.052;2024-01-15T14:10:06;4.05;;;2.45;;
83247;SDS011;73465;51.038;7.052;2024-01-15T14:12:33;6.57;;;2.80;;
83247;SDS011;73465;51.038;7.052;2024-01-15T14:14:58;4.05;;;2.35;;
83247;SDS011;73465;51.038;7.052;2024-01-15T14:17:24;4.10;;;2.55;;
83247;SDS011;73465;51.038;7.052;2024-01-15T14:19:49;7.28;;;2.50;;
83247;SDS011;73465;51.038;7.052;2024-01-15T14:22:14;7.10;;;2.78;;
83247;SDS011;73465;51.038;7.052;2024-01-15T14:24:40;4.35;;;2.85;;
83247;SDS011;73465;51.038;7.052;2024-01-15T14:27:05;4.65;;;2.90;;
83247;SDS011;73465;51.038;7.052;2024-01-15T14:29:32;3.25;;;2.30;;
83247;SDS011;73465;51.038;7.052;2024-01-15T14:31:57;7.68;;;2.88;;
83247;SDS011;73465;51.038;7.052;2024-01-15T14:34:24;6.40;;;3.22;;
83247;SDS011;73465;51.038;7.052;2024-01-15T14:36:50;4.05;;;2.60;;
83247;SDS011;73465;51.038;7.052;2024-01-15T14:39:21;4.68;;;2.72;;
83247;SDS011;73465;51.038;7.052;2024-01-15T14:41:47;3.72;;;2.20;;
83247;SDS011;73465;51.038;7.052;2024-01-15T14:44:12;2.78;;;2.22;;
83247;SDS011;73465;51.038;7.052;2024-01-15T14:46:38;3.17;;;2.22;;
83247;SDS011;73465;51.038;7.052;2024-01-15T14:49:04;12.68;;;3.13;;
83247;SDS011;73465;51.038;7.052;2024-01-15T14:51:29;6.47;;;2.90;;
83247;SDS011;73465;51.038;7.052;2024-01-15T14:53:55;4.63;;;3.08;;
83247;SDS011;73465;51.038;7.052;2024-01-15T14:56:20;7.15;;;2.60;;
83247;SDS011;73465;51.038;7.052;2024-01-15T14:58:46;8.05;;;2.75;;
83247;SDS011;73465;51.038;7.052;2024-01-15T15:01:12;3.90;;;2.30;;